createdAt,value
2019-05-30T00:01:30.610Z,11
2019-05-30T00:11:36.695Z,8
2019-05-30T00:21:44.107Z,8
2019-05-30T00:31:48.116Z,10
2019-05-30T00:41:53.843Z,12
2019-05-30T00:51:58.943Z,12
2019-05-30T01:02:05.215Z,13
2019-05-30T01:12:09.291Z,11
2019-05-30T01:22:14.552Z,11
2019-05-30T01:32:20.377Z,10
2019-05-30T01:42:23.438Z,10
2019-05-30T01:52:31.514Z,12
2019-05-30T02:02:38.158Z,15
2019-05-30T02:12:43.624Z,12
2019-05-30T02:22:49.712Z,15
2019-05-30T02:32:54.324Z,13
2019-05-30T02:43:03.524Z,12
2019-05-30T02:53:08.707Z,17
2019-05-30T03:03:15.125Z,14
2019-05-30T03:13:19.107Z,13
2019-05-30T03:23:25.827Z,12
2019-05-30T03:34:29.669Z,11
2019-05-30T03:44:23.616Z,10
2019-05-30T03:54:31.390Z,11
2019-05-30T04:04:39.536Z,13
2019-05-30T04:14:46.685Z,13
2019-05-30T04:24:53.086Z,20
2019-05-30T04:35:00.880Z,16
2019-05-30T04:45:03.252Z,11
2019-05-30T04:55:10.477Z,10
2019-05-30T05:05:26.651Z,11
2019-05-30T05:15:20.581Z,16
2019-05-30T05:25:25.041Z,12
2019-05-30T05:35:28.765Z,10
2019-05-30T05:45:33.100Z,8
2019-05-30T05:55:37.749Z,7
2019-05-30T06:05:53.820Z,11
2019-05-30T06:15:53.546Z,8
2019-05-30T06:26:08.796Z,8
2019-05-30T06:36:07.032Z,9
2019-05-30T06:46:11.892Z,9
2019-05-30T06:56:16.706Z,9
2019-05-30T07:06:29.252Z,7
2019-05-30T07:16:27.836Z,7
2019-05-30T07:26:34.648Z,9
2019-05-30T07:36:36.730Z,7
2019-05-30T07:46:45.537Z,7
2019-05-30T07:56:46.842Z,7
2019-05-30T08:06:52.179Z,9
2019-05-30T08:16:58.023Z,8
2019-05-30T08:27:07.285Z,6
2019-05-30T08:37:07.996Z,8
2019-05-30T08:47:15.815Z,7
2019-05-30T08:57:22.187Z,6
2019-05-30T09:07:27.611Z,6
2019-05-30T09:17:40.488Z,6
2019-05-30T09:27:40.625Z,7
2019-05-30T09:37:45.751Z,6
2019-05-30T09:47:49.257Z,6
2019-05-30T09:57:52.023Z,6
2019-05-30T10:07:56.836Z,7
2019-05-30T10:18:02.274Z,6
2019-05-30T10:28:07.717Z,6
2019-05-30T10:38:20.357Z,9
2019-05-30T10:48:24.593Z,8
2019-05-30T10:58:34.842Z,5
2019-05-30T11:08:50.599Z,8
2019-05-30T11:18:44.965Z,6
2019-05-30T11:28:48.843Z,8
2019-05-30T11:38:55.836Z,6
2019-05-30T11:49:02.010Z,6
2019-05-30T11:59:06.854Z,5
2019-05-30T12:09:14.919Z,8
2019-05-30T12:19:18.618Z,5
2019-05-30T12:29:25.033Z,6
2019-05-30T12:39:31.035Z,5
2019-05-30T12:49:37.362Z,6
2019-05-30T12:59:45.635Z,6
2019-05-30T13:09:54.963Z,8
2019-05-30T13:19:57.556Z,11
2019-05-30T13:30:04.718Z,21
2019-05-30T13:40:25.639Z,10
2019-05-30T13:50:17.962Z,18
2019-05-30T14:00:22.837Z,3
2019-05-30T14:10:30.815Z,6
2019-05-30T14:20:37.875Z,4
2019-05-30T14:30:41.988Z,6
2019-05-30T14:40:49.788Z,6
2019-05-30T14:50:54.781Z,10
2019-05-30T15:01:00.177Z,5
2019-05-30T15:11:05.707Z,5
2019-05-30T15:21:10.616Z,6
2019-05-30T15:31:16.617Z,6
2019-05-30T15:41:20.634Z,5
2019-05-30T15:51:25.812Z,5
2019-05-30T16:01:30.501Z,5
2019-05-30T16:11:34.814Z,4
2019-05-30T16:21:44.224Z,4
2019-05-30T16:31:46.579Z,4
2019-05-30T16:41:53.801Z,5
2019-05-30T16:51:59.394Z,4
2019-05-30T17:02:05.469Z,9
2019-05-30T17:12:10.747Z,6
2019-05-30T17:22:17.097Z,7
2019-05-30T17:32:22.029Z,4
2019-05-30T17:42:27.485Z,4
2019-05-30T17:52:37.131Z,7
2019-05-30T18:02:37.705Z,6
2019-05-30T18:12:43.860Z,4
2019-05-30T18:22:49.169Z,6
2019-05-30T18:32:55.465Z,7
2019-05-30T18:43:02.420Z,6
2019-05-30T18:53:08.666Z,4
2019-05-30T19:03:14.846Z,7
2019-05-30T19:13:19.025Z,7
2019-05-30T19:23:28.553Z,5
2019-05-30T19:33:31.240Z,5
2019-05-30T19:43:36.804Z,5
2019-05-30T19:53:40.898Z,4
2019-05-30T20:03:48.249Z,5
2019-05-30T20:13:52.850Z,5
2019-05-30T20:24:00.120Z,7
2019-05-30T20:34:02.632Z,6
2019-05-30T20:44:10.126Z,6
2019-05-30T20:54:18.778Z,9
2019-05-30T21:05:42.418Z,5
2019-05-30T21:15:46.338Z,5
2019-05-30T21:25:51.092Z,5
2019-05-30T21:35:57.630Z,6
2019-05-30T21:46:01.781Z,8
2019-05-30T21:56:04.920Z,6
2019-05-30T22:06:11.927Z,7
2019-05-30T22:16:16.471Z,6
2019-05-30T22:26:22.092Z,6
2019-05-30T22:36:30.408Z,5
2019-05-30T22:46:35.907Z,6
2019-05-30T22:56:41.471Z,6
2019-05-30T23:06:47.967Z,6
2019-05-30T23:16:52.849Z,6
2019-05-30T23:26:57.847Z,4
2019-05-30T23:37:02.145Z,7
2019-05-30T23:47:07.175Z,5
2019-05-30T23:57:13.506Z,8
